createdAt,value
2018-05-17T00:01:21.972Z,13.05
2018-05-17T00:03:50.432Z,13.10
2018-05-17T00:06:19.774Z,12.86
2018-05-17T00:08:48.257Z,13.21
2018-05-17T00:11:16.770Z,12.76
2018-05-17T00:13:45.367Z,12.56
2018-05-17T00:16:13.907Z,12.60
2018-05-17T00:18:42.877Z,12.88
2018-05-17T00:21:12.207Z,12.74
2018-05-17T00:23:40.705Z,12.34
2018-05-17T00:26:09.156Z,12.69
2018-05-17T00:28:37.605Z,12.75
2018-05-17T00:31:06.217Z,12.24
2018-05-17T00:33:34.680Z,12.30
2018-05-17T00:36:03.169Z,12.57
2018-05-17T00:38:31.686Z,12.47
2018-05-17T00:41:00.178Z,12.59
2018-05-17T00:43:28.671Z,12.50
2018-05-17T00:45:57.210Z,12.79
2018-05-17T00:48:25.692Z,11.66
2018-05-17T00:50:54.179Z,12.52
2018-05-17T00:53:32.304Z,12.09
2018-05-17T00:56:00.741Z,12.79
2018-05-17T00:58:29.233Z,12.02
2018-05-17T01:00:57.677Z,12.32
2018-05-17T01:03:26.154Z,12.54
2018-05-17T01:05:54.628Z,12.28
2018-05-17T01:08:23.091Z,12.18
2018-05-17T01:10:51.568Z,12.23
2018-05-17T01:13:20.074Z,12.16
2018-05-17T01:15:48.543Z,12.15
2018-05-17T01:18:17.056Z,12.18
2018-05-17T01:20:45.544Z,12.22
2018-05-17T01:23:14.013Z,11.74
2018-05-17T01:25:42.473Z,11.92
2018-05-17T01:28:10.962Z,11.62
2018-05-17T01:30:39.418Z,11.60
2018-05-17T01:33:07.865Z,11.93
2018-05-17T01:35:36.337Z,11.87
2018-05-17T01:38:34.552Z,11.53
2018-05-17T01:41:03.014Z,11.61
2018-05-17T01:43:31.462Z,11.56
2018-05-17T01:45:59.904Z,11.65
2018-05-17T01:48:28.382Z,12.01
2018-05-17T01:50:57.635Z,11.48
2018-05-17T01:53:26.088Z,11.26
2018-05-17T01:55:54.569Z,11.51
2018-05-17T01:58:23.022Z,11.70
2018-05-17T02:00:51.483Z,11.49
2018-05-17T02:03:19.983Z,11.26
2018-05-17T02:05:48.458Z,11.26
2018-05-17T02:08:16.964Z,11.58
2018-05-17T02:10:45.469Z,11.60
2018-05-17T02:13:14.002Z,11.44
2018-05-17T02:15:42.500Z,11.47
2018-05-17T02:18:11.007Z,11.38
2018-05-17T02:20:39.529Z,11.34
2018-05-17T02:23:08.070Z,11.57
2018-05-17T02:25:36.569Z,10.91
2018-05-17T02:28:05.056Z,11.48
2018-05-17T02:30:33.528Z,11.56
2018-05-17T02:33:02.043Z,11.61
2018-05-17T02:35:30.566Z,11.78
2018-05-17T02:37:59.001Z,10.94
2018-05-17T02:40:27.497Z,11.49
2018-05-17T02:42:56.004Z,11.18
2018-05-17T02:45:24.459Z,11.41
2018-05-17T02:47:52.952Z,10.99
2018-05-17T02:50:22.173Z,11.26
2018-05-17T02:52:51.451Z,11.58
2018-05-17T02:55:19.915Z,11.53
2018-05-17T02:57:48.346Z,11.45
2018-05-17T03:00:16.793Z,11.20
2018-05-17T03:02:45.250Z,10.94
2018-05-17T03:05:14.366Z,11.12
2018-05-17T03:07:42.808Z,11.02
2018-05-17T03:10:11.243Z,11.51
2018-05-17T03:12:40.498Z,11.02
2018-05-17T03:15:08.937Z,11.22
2018-05-17T03:17:37.452Z,11.15
2018-05-17T03:20:05.956Z,10.91
2018-05-17T03:22:34.555Z,10.89
2018-05-17T03:25:03.059Z,10.61
2018-05-17T03:27:31.559Z,11.06
2018-05-17T03:30:00.092Z,11.13
2018-05-17T03:32:28.566Z,11.04
2018-05-17T03:34:57.091Z,11.08
2018-05-17T03:37:25.570Z,10.93
2018-05-17T03:39:54.127Z,11.29
2018-05-17T03:42:22.624Z,11.04
2018-05-17T03:44:51.096Z,11.30
2018-05-17T03:47:19.545Z,10.96
2018-05-17T03:49:48.755Z,10.93
2018-05-17T03:52:17.244Z,11.04
2018-05-17T03:54:45.706Z,11.26
2018-05-17T03:57:14.198Z,10.60
2018-05-17T03:59:43.541Z,10.70
2018-05-17T04:02:29.469Z,10.91
2018-05-17T04:08:18.025Z,11.23
2018-05-17T04:10:46.462Z,11.65
2018-05-17T04:13:14.923Z,10.92
2018-05-17T04:15:43.414Z,10.80
2018-05-17T04:18:11.877Z,10.38
2018-05-17T04:20:40.367Z,10.60
2018-05-17T04:23:08.848Z,10.97
2018-05-17T04:25:37.282Z,10.89
2018-05-17T04:28:05.795Z,11.13
2018-05-17T04:30:34.317Z,10.93
2018-05-17T04:33:02.777Z,10.82
2018-05-17T04:35:31.231Z,10.96
2018-05-17T04:37:59.999Z,10.95
2018-05-17T04:40:28.601Z,10.59
2018-05-17T04:42:57.110Z,11.00
2018-05-17T04:45:27.517Z,11.02
2018-05-17T04:47:56.764Z,10.85
2018-05-17T04:50:25.226Z,11.26
2018-05-17T04:52:53.661Z,11.34
2018-05-17T04:55:22.865Z,11.16
2018-05-17T04:57:51.332Z,10.94
2018-05-17T05:00:19.803Z,11.24
2018-05-17T05:02:48.320Z,10.79
2018-05-17T05:05:16.838Z,11.03
2018-05-17T05:07:46.058Z,10.78
2018-05-17T05:10:14.556Z,11.01
2018-05-17T05:12:43.032Z,11.01
2018-05-17T05:15:11.587Z,10.70
2018-05-17T05:17:40.113Z,11.07
2018-05-17T05:20:08.639Z,11.05
2018-05-17T05:22:37.116Z,11.23
2018-05-17T05:25:05.608Z,11.16
2018-05-17T05:27:34.031Z,11.40
2018-05-17T05:30:02.529Z,10.88
2018-05-17T05:32:31.741Z,10.50
2018-05-17T05:35:00.269Z,10.73
2018-05-17T05:37:28.838Z,10.52
2018-05-17T05:39:57.708Z,10.58
2018-05-17T05:42:26.132Z,10.34
2018-05-17T05:44:54.599Z,10.50
2018-05-17T05:47:23.093Z,11.01
2018-05-17T05:49:51.528Z,10.80
2018-05-17T05:52:20.012Z,10.65
2018-05-17T05:54:48.444Z,10.97
2018-05-17T05:57:16.954Z,11.01
2018-05-17T05:59:45.409Z,11.14
2018-05-17T06:02:13.897Z,11.29
2018-05-17T06:04:42.357Z,10.98
2018-05-17T06:07:10.857Z,11.33
2018-05-17T06:09:39.314Z,11.55
2018-05-17T06:12:09.249Z,11.50
2018-05-17T06:14:38.502Z,11.45
2018-05-17T06:17:07.878Z,11.26
2018-05-17T06:19:36.358Z,11.25
2018-05-17T06:22:04.928Z,11.46
2018-05-17T06:24:33.416Z,11.58
2018-05-17T06:27:02.675Z,11.42
2018-05-17T06:29:31.178Z,11.42
2018-05-17T06:31:59.670Z,11.48
2018-05-17T06:34:28.161Z,11.19
2018-05-17T06:36:57.394Z,11.21
2018-05-17T06:39:26.625Z,11.34
2018-05-17T06:41:55.130Z,11.34
2018-05-17T06:44:24.317Z,11.39
2018-05-17T06:46:52.782Z,11.69
2018-05-17T06:49:21.271Z,11.90
2018-05-17T06:51:49.728Z,11.55
2018-05-17T06:54:18.209Z,11.71
2018-05-17T06:56:46.688Z,11.93
2018-05-17T07:01:43.640Z,11.73
2018-05-17T07:04:12.125Z,11.67
2018-05-17T07:06:40.615Z,11.30
2018-05-17T07:09:09.090Z,11.34
2018-05-17T07:11:37.581Z,11.57
2018-05-17T07:14:06.022Z,11.76
2018-05-17T07:16:34.468Z,11.92
2018-05-17T07:19:02.916Z,11.73
2018-05-17T07:21:31.403Z,11.79
2018-05-17T07:23:59.843Z,11.69
2018-05-17T07:26:28.349Z,11.89
2018-05-17T07:28:56.829Z,11.81
2018-05-17T07:31:26.105Z,11.53
2018-05-17T07:33:54.603Z,11.75
2018-05-17T07:36:23.083Z,11.38
2018-05-17T07:38:51.577Z,11.72
2018-05-17T07:41:20.771Z,11.84
2018-05-17T07:43:49.236Z,11.94
2018-05-17T07:46:17.710Z,11.94
2018-05-17T07:48:47.724Z,12.10
2018-05-17T07:51:16.220Z,12.22
2018-05-17T07:53:44.650Z,12.40
2018-05-17T07:56:13.121Z,12.36
2018-05-17T07:58:41.578Z,12.36
2018-05-17T08:01:10.840Z,12.38
2018-05-17T08:03:39.286Z,12.17
2018-05-17T08:06:07.720Z,12.17
2018-05-17T08:08:36.170Z,12.43
2018-05-17T08:11:04.600Z,12.47
2018-05-17T08:13:33.077Z,12.45
2018-05-17T08:16:01.512Z,12.17
2018-05-17T08:18:29.964Z,12.49
2018-05-17T08:20:58.391Z,12.60
2018-05-17T08:23:26.875Z,12.37
2018-05-17T08:25:55.294Z,12.46
2018-05-17T08:28:23.742Z,12.74
2018-05-17T08:30:52.181Z,12.62
2018-05-17T08:33:21.363Z,12.69
2018-05-17T08:35:49.824Z,12.56
2018-05-17T08:38:18.253Z,12.68
2018-05-17T08:40:46.723Z,12.76
2018-05-17T08:43:15.157Z,12.96
2018-05-17T08:45:43.595Z,12.46
2018-05-17T08:48:12.077Z,12.90
2018-05-17T08:50:40.515Z,13.10
2018-05-17T08:53:08.983Z,13.29
2018-05-17T08:55:37.408Z,13.46
2018-05-17T08:58:05.875Z,13.57
2018-05-17T09:00:34.317Z,13.91
2018-05-17T09:03:02.755Z,14.08
2018-05-17T09:05:32.005Z,13.70
2018-05-17T09:08:00.443Z,13.70
2018-05-17T09:10:28.897Z,13.68
2018-05-17T09:12:57.358Z,13.71
2018-05-17T09:15:25.831Z,13.95
2018-05-17T09:17:54.297Z,14.05
2018-05-17T09:20:23.529Z,13.89
2018-05-17T09:22:52.755Z,14.11
2018-05-17T09:25:21.951Z,13.93
2018-05-17T09:27:50.425Z,14.52
2018-05-17T09:30:18.829Z,14.67
2018-05-17T09:32:47.281Z,14.00
2018-05-17T09:35:15.719Z,14.22
2018-05-17T09:37:44.227Z,13.78
2018-05-17T09:40:12.697Z,14.46
2018-05-17T09:42:41.911Z,14.67
2018-05-17T09:45:10.344Z,14.19
2018-05-17T09:47:39.643Z,13.94
2018-05-17T09:50:08.055Z,14.48
2018-05-17T09:52:36.504Z,14.47
2018-05-17T09:55:04.965Z,14.58
2018-05-17T09:57:33.379Z,14.84
2018-05-17T10:00:02.611Z,15.06
2018-05-17T10:02:31.943Z,14.79
2018-05-17T10:05:00.413Z,14.67
2018-05-17T10:07:28.876Z,13.98
2018-05-17T10:09:57.304Z,14.64
2018-05-17T10:12:25.795Z,14.55
2018-05-17T10:14:54.670Z,14.49
2018-05-17T10:17:23.909Z,14.36
2018-05-17T10:19:52.562Z,14.94
2018-05-17T10:22:20.998Z,15.37
2018-05-17T10:24:50.222Z,15.22
2018-05-17T10:27:19.490Z,14.97
2018-05-17T10:29:47.953Z,14.91
2018-05-17T10:32:16.369Z,15.13
2018-05-17T10:34:44.834Z,15.33
2018-05-17T10:37:13.275Z,15.43
2018-05-17T10:39:41.743Z,15.01
2018-05-17T10:42:10.273Z,14.99
2018-05-17T10:44:38.664Z,15.14
2018-05-17T10:47:07.141Z,15.00
2018-05-17T10:49:35.557Z,15.49
2018-05-17T10:52:04.003Z,15.58
2018-05-17T10:54:32.501Z,15.72
2018-05-17T10:57:00.999Z,15.33
2018-05-17T10:59:29.428Z,15.71
2018-05-17T11:01:58.665Z,15.62
2018-05-17T11:04:27.090Z,15.73
2018-05-17T11:06:55.525Z,15.93
2018-05-17T11:09:23.966Z,16.34
2018-05-17T11:11:53.173Z,15.77
2018-05-17T11:14:22.435Z,16.53
2018-05-17T11:16:50.891Z,15.88
2018-05-17T11:19:19.358Z,16.22
2018-05-17T11:21:47.796Z,16.42
2018-05-17T11:24:16.270Z,16.22
2018-05-17T11:26:44.713Z,16.67
2018-05-17T11:29:13.203Z,16.20
2018-05-17T11:31:45.593Z,16.20
2018-05-17T11:34:14.016Z,16.61
2018-05-17T11:36:42.480Z,16.49
2018-05-17T11:39:11.023Z,16.93
2018-05-17T11:41:39.497Z,16.89
2018-05-17T11:44:08.376Z,16.47
2018-05-17T11:46:37.609Z,16.78
2018-05-17T11:49:06.086Z,17.20
2018-05-17T11:51:35.342Z,17.68
2018-05-17T11:54:04.573Z,17.19
2018-05-17T11:56:33.065Z,17.49
2018-05-17T11:59:01.514Z,17.26
2018-05-17T12:01:30.061Z,17.41
2018-05-17T12:03:58.493Z,17.01
2018-05-17T12:06:26.966Z,17.56
2018-05-17T12:08:55.439Z,17.31
2018-05-17T12:11:23.903Z,17.51
2018-05-17T12:13:53.140Z,17.60
2018-05-17T12:16:21.605Z,17.50
2018-05-17T12:18:50.057Z,17.59
2018-05-17T12:21:24.291Z,17.79
2018-05-17T12:23:52.737Z,17.98
2018-05-17T12:26:21.227Z,18.10
2018-05-17T12:28:49.662Z,17.68
2018-05-17T12:31:18.128Z,18.11
2018-05-17T12:33:46.600Z,18.38
2018-05-17T12:36:15.793Z,18.21
2018-05-17T12:38:44.298Z,18.24
2018-05-17T12:41:12.719Z,18.45
2018-05-17T12:43:41.208Z,18.46
2018-05-17T12:46:09.623Z,18.86
2018-05-17T12:48:38.051Z,19.11
2018-05-17T12:51:06.528Z,18.97
2018-05-17T12:53:34.956Z,18.66
2018-05-17T12:56:04.240Z,18.61
2018-05-17T12:58:32.705Z,18.45
2018-05-17T13:01:01.216Z,18.61
2018-05-17T13:03:29.669Z,18.61
2018-05-17T13:05:58.126Z,18.34
2018-05-17T13:08:26.544Z,18.67
2018-05-17T13:10:54.974Z,18.50
2018-05-17T13:13:23.433Z,19.22
2018-05-17T13:15:51.881Z,18.59
2018-05-17T13:18:20.351Z,18.37
2018-05-17T13:20:48.995Z,18.58
2018-05-17T13:23:17.414Z,18.51
2018-05-17T13:25:45.883Z,18.52
2018-05-17T13:28:14.311Z,18.98
2018-05-17T13:30:42.781Z,19.14
2018-05-17T13:33:11.212Z,19.30
2018-05-17T13:35:39.651Z,19.20
2018-05-17T13:38:08.099Z,19.22
2018-05-17T13:40:36.514Z,18.98
2018-05-17T13:43:05.003Z,19.16
2018-05-17T13:45:33.451Z,19.09
2018-05-17T13:48:01.859Z,19.15
2018-05-17T13:50:30.388Z,19.04
2018-05-17T13:52:58.841Z,19.64
2018-05-17T13:55:27.670Z,19.32
2018-05-17T13:57:56.096Z,19.55
2018-05-17T14:00:24.524Z,19.39
2018-05-17T14:02:52.985Z,19.77
2018-05-17T14:05:21.436Z,19.90
2018-05-17T14:07:49.962Z,19.48
2018-05-17T14:10:18.409Z,19.38
2018-05-17T14:12:46.853Z,18.95
2018-05-17T14:15:16.170Z,19.13
2018-05-17T14:17:44.611Z,19.04
2018-05-17T14:20:13.063Z,19.05
2018-05-17T14:22:41.484Z,19.09
2018-05-17T14:25:09.910Z,19.62
2018-05-17T14:27:39.159Z,19.79
2018-05-17T14:30:08.359Z,19.45
2018-05-17T14:32:43.778Z,19.52
2018-05-17T14:35:12.226Z,19.76
2018-05-17T14:37:41.502Z,19.60
2018-05-17T14:40:09.923Z,19.66
2018-05-17T14:42:38.344Z,20.06
2018-05-17T14:45:06.798Z,19.82
2018-05-17T14:47:35.225Z,19.94
2018-05-17T14:50:03.716Z,19.51
2018-05-17T14:52:32.136Z,19.28
2018-05-17T14:55:00.577Z,19.78
2018-05-17T14:57:29.038Z,19.95
2018-05-17T14:59:57.472Z,19.81
2018-05-17T15:02:25.927Z,19.86
2018-05-17T15:04:54.336Z,19.85
2018-05-17T15:07:22.780Z,19.73
2018-05-17T15:09:51.211Z,19.98
2018-05-17T15:12:20.454Z,20.11
2018-05-17T15:14:49.665Z,19.90
2018-05-17T15:17:18.144Z,19.90
2018-05-17T15:19:46.552Z,19.78
2018-05-17T15:22:14.979Z,19.71
2018-05-17T15:24:44.290Z,19.98
2018-05-17T15:27:13.451Z,19.80
2018-05-17T15:29:41.967Z,19.68
2018-05-17T15:32:10.332Z,19.92
2018-05-17T15:34:39.501Z,20.15
2018-05-17T15:37:07.939Z,20.37
2018-05-17T15:39:36.363Z,20.41
2018-05-17T15:42:05.593Z,20.32
2018-05-17T15:44:34.785Z,20.08
2018-05-17T15:47:03.226Z,20.40
2018-05-17T15:49:32.460Z,20.17
2018-05-17T15:52:01.654Z,19.78
2018-05-17T15:54:30.107Z,20.17
2018-05-17T15:56:58.553Z,20.44
2018-05-17T15:59:26.978Z,20.03
2018-05-17T16:01:55.438Z,20.09
2018-05-17T16:04:23.900Z,20.33
2018-05-17T16:06:53.145Z,19.87
2018-05-17T16:09:21.587Z,20.12
2018-05-17T16:11:50.012Z,20.04
2018-05-17T16:14:18.448Z,19.87
2018-05-17T16:16:47.665Z,20.14
2018-05-17T16:19:16.877Z,20.54
2018-05-17T16:21:45.343Z,20.26
2018-05-17T16:24:13.750Z,19.96
2018-05-17T16:26:42.188Z,19.98
2018-05-17T16:29:11.369Z,19.78
2018-05-17T16:31:39.820Z,20.32
2018-05-17T16:34:08.990Z,19.73
2018-05-17T16:36:37.484Z,19.55
2018-05-17T16:39:12.286Z,19.45
2018-05-17T16:41:40.748Z,19.81
2018-05-17T16:44:09.172Z,19.67
2018-05-17T16:46:37.626Z,19.68
2018-05-17T16:49:06.859Z,19.93
2018-05-17T16:51:35.287Z,19.33
2018-05-17T16:54:03.780Z,19.46
2018-05-17T16:56:32.244Z,19.72
2018-05-17T16:59:00.703Z,19.54
2018-05-17T17:01:29.127Z,19.53
2018-05-17T17:03:57.585Z,19.39
2018-05-17T17:06:26.808Z,19.09
2018-05-17T17:08:56.002Z,19.43
2018-05-17T17:11:24.575Z,19.10
2018-05-17T17:13:53.002Z,19.33
2018-05-17T17:16:21.448Z,19.44
2018-05-17T17:18:50.743Z,18.71
2018-05-17T17:21:24.214Z,18.75
2018-05-17T17:23:52.696Z,18.49
2018-05-17T17:26:21.921Z,18.65
2018-05-17T17:28:51.264Z,18.43
2018-05-17T17:31:19.953Z,18.71
2018-05-17T17:33:49.180Z,18.87
2018-05-17T17:36:17.673Z,18.89
2018-05-17T17:38:51.592Z,18.74
2018-05-17T17:41:20.397Z,18.48
2018-05-17T17:43:49.758Z,18.55
2018-05-17T17:46:19.025Z,17.98
2018-05-17T17:48:48.590Z,18.04
2018-05-17T17:51:17.498Z,17.90
2018-05-17T17:53:46.931Z,17.60
2018-05-17T17:56:15.621Z,17.42
2018-05-17T17:58:44.037Z,17.78
2018-05-17T18:01:13.715Z,17.76
2018-05-17T18:03:42.262Z,17.62
2018-05-17T18:06:10.815Z,17.39
2018-05-17T18:08:39.875Z,17.72
2018-05-17T18:11:09.291Z,17.51
2018-05-17T18:13:37.765Z,17.49
2018-05-17T18:16:06.365Z,17.42
2018-05-17T18:18:34.951Z,17.40
2018-05-17T18:21:03.383Z,17.27
2018-05-17T18:23:31.832Z,16.78
2018-05-17T18:26:00.291Z,16.98
2018-05-17T18:28:29.315Z,17.54
2018-05-17T18:30:57.889Z,17.16
2018-05-17T18:33:27.012Z,16.86
2018-05-17T18:35:55.917Z,17.47
2018-05-17T18:38:24.924Z,17.19
2018-05-17T18:40:53.404Z,16.97
2018-05-17T18:43:23.692Z,16.67
2018-05-17T18:45:54.284Z,16.67
2018-05-17T18:48:23.642Z,16.88
2018-05-17T18:50:53.301Z,16.47
2018-05-17T18:53:23.017Z,16.56
2018-05-17T18:55:53.489Z,16.77
2018-05-17T18:58:23.407Z,16.31
2018-05-17T19:00:54.842Z,16.35
2018-05-17T19:03:24.692Z,16.26
2018-05-17T19:05:54.397Z,16.31
2018-05-17T19:08:24.303Z,16.44
2018-05-17T19:10:54.020Z,16.05
2018-05-17T19:13:24.651Z,15.96
2018-05-17T19:15:54.375Z,15.46
2018-05-17T19:18:28.622Z,15.49
2018-05-17T19:20:58.618Z,15.81
2018-05-17T19:23:29.122Z,15.42
2018-05-17T19:25:58.789Z,15.98
2018-05-17T19:28:28.589Z,16.09
2018-05-17T19:30:58.444Z,15.99
2018-05-17T19:33:28.211Z,15.94
2018-05-17T19:35:58.616Z,15.82
2018-05-17T19:38:28.251Z,15.43
2018-05-17T19:40:57.790Z,15.64
2018-05-17T19:43:27.686Z,15.62
2018-05-17T19:45:58.435Z,15.73
2018-05-17T19:48:29.050Z,15.30
2018-05-17T19:50:58.839Z,14.98
2018-05-17T19:53:28.541Z,15.10
2018-05-17T19:55:58.265Z,15.20
2018-05-17T19:58:28.161Z,15.51
2018-05-17T20:00:58.680Z,15.39
2018-05-17T20:03:29.332Z,14.67
2018-05-17T20:05:59.786Z,14.95
2018-05-17T20:08:29.480Z,15.14
2018-05-17T20:10:59.195Z,14.57
2018-05-17T20:13:28.991Z,15.11
2018-05-17T20:16:01.903Z,14.96
2018-05-17T20:18:32.468Z,14.98
2018-05-17T20:21:02.938Z,14.67
2018-05-17T20:23:32.667Z,14.90
2018-05-17T20:26:02.381Z,14.77
2018-05-17T20:28:32.946Z,14.27
2018-05-17T20:31:02.488Z,14.26
2018-05-17T20:33:32.349Z,14.57
2018-05-17T20:36:02.929Z,14.56
2018-05-17T20:38:33.749Z,14.58
2018-05-17T20:41:04.347Z,14.24
2018-05-17T20:43:33.765Z,14.40
2018-05-17T20:46:03.305Z,14.20
2018-05-17T20:48:31.779Z,14.24
2018-05-17T20:51:00.272Z,13.94
2018-05-17T20:53:28.776Z,14.11
2018-05-17T20:55:57.386Z,14.24
2018-05-17T20:58:25.855Z,13.82
2018-05-17T21:00:55.049Z,14.20
2018-05-17T21:03:23.509Z,14.07
2018-05-17T21:05:51.949Z,14.07
2018-05-17T21:08:20.517Z,14.68
2018-05-17T21:10:49.823Z,14.29
2018-05-17T21:13:18.324Z,14.39
2018-05-17T21:15:46.825Z,14.44
2018-05-17T21:18:15.287Z,14.44
2018-05-17T21:20:43.727Z,14.17
2018-05-17T21:23:12.392Z,14.08
2018-05-17T21:25:40.881Z,14.35
2018-05-17T21:28:09.589Z,14.38
2018-05-17T21:30:38.152Z,13.67
2018-05-17T21:33:06.667Z,14.29
2018-05-17T21:35:35.130Z,14.62
2018-05-17T21:38:03.651Z,13.57
2018-05-17T21:40:32.064Z,13.78
2018-05-17T21:43:00.611Z,13.76
2018-05-17T21:45:29.851Z,13.52
2018-05-17T21:47:58.358Z,13.83
2018-05-17T21:50:27.547Z,13.79
2018-05-17T21:53:06.725Z,13.44
2018-05-17T21:55:35.178Z,13.26
2018-05-17T21:58:03.628Z,13.48
2018-05-17T22:00:32.240Z,13.62
2018-05-17T22:03:00.839Z,13.05
2018-05-17T22:05:29.310Z,12.74
2018-05-17T22:08:01.100Z,13.10
2018-05-17T22:10:29.597Z,13.49
2018-05-17T22:12:58.036Z,13.04
2018-05-17T22:15:26.689Z,13.05
2018-05-17T22:17:55.146Z,12.95
2018-05-17T22:20:23.763Z,13.22
2018-05-17T22:22:52.242Z,12.91
2018-05-17T22:25:20.691Z,12.53
2018-05-17T22:27:49.928Z,12.81
2018-05-17T22:30:19.144Z,13.15
2018-05-17T22:32:47.607Z,13.29
2018-05-17T22:35:16.093Z,12.98
2018-05-17T22:37:45.274Z,13.01
2018-05-17T22:40:15.520Z,12.88
2018-05-17T22:42:45.061Z,12.45
2018-05-17T22:45:14.036Z,13.05
2018-05-17T22:47:43.342Z,12.89
2018-05-17T22:50:11.807Z,12.56
2018-05-17T22:52:41.045Z,12.84
2018-05-17T22:55:15.267Z,12.55
2018-05-17T22:58:02.105Z,12.73
2018-05-17T23:00:30.582Z,12.58
2018-05-17T23:02:59.045Z,13.01
2018-05-17T23:05:28.565Z,12.78
2018-05-17T23:07:57.817Z,12.78
2018-05-17T23:10:26.285Z,12.85
2018-05-17T23:12:55.516Z,12.87
2018-05-17T23:15:24.810Z,12.94
2018-05-17T23:17:53.226Z,12.84
2018-05-17T23:20:21.699Z,12.66
2018-05-17T23:22:50.262Z,12.39
2018-05-17T23:25:19.494Z,12.34
2018-05-17T23:27:48.729Z,12.64
2018-05-17T23:30:17.558Z,12.55
2018-05-17T23:32:46.325Z,12.68
2018-05-17T23:35:14.740Z,12.65
2018-05-17T23:37:43.264Z,12.79
2018-05-17T23:40:30.181Z,12.27
2018-05-17T23:42:58.729Z,12.23
2018-05-17T23:45:27.177Z,12.00
2018-05-17T23:47:55.595Z,12.47
2018-05-17T23:50:24.046Z,12.46
2018-05-17T23:52:52.491Z,12.25
2018-05-17T23:55:20.945Z,12.38
2018-05-17T23:57:49.370Z,12.07
